sensor_id;sensor_type;location;lat;lon;timestamp;P1;durP1;ratioP1;P2;durP2;ratioP2
65063;SDS011;51654;51.452;6.644;2023-08-12T00:00:32;3.22;;;3.03;;
65063;SDS011;51654;51.452;6.644;2023-08-12T00:02:59;3.97;;;3.47;;
65063;SDS011;51654;51.452;6.644;2023-08-12T00:05:27;8.90;;;3.65;;
65063;SDS011;51654;51.452;6.644;2023-08-12T00:07:54;8.93;;;3.03;;
65063;SDS011;51654;51.452;6.644;2023-08-12T00:10:22;6.15;;;3.40;;
65063;SDS011;51654;51.452;6.644;2023-08-12T00:12:49;6.18;;;4.05;;
65063;SDS011;51654;51.452;6.644;2023-08-12T00:15:16;9.25;;;4.13;;
65063;SDS011;51654;51.452;6.644;2023-08-12T00:17:44;4.57;;;3.25;;
65063;SDS011;51654;51.452;6.644;2023-08-12T00:20:11;5.47;;;3.50;;
65063;SDS011;51654;51.452;6.644;2023-08-12T00:22:39;2.85;;;2.75;;
65063;SDS011;51654;51.452;6.644;2023-08-12T00:25:07;3.25;;;3.05;;
65063;SDS011;51654;51.452;6.644;2023-08-12T00:27:34;6.00;;;3.97;;
65063;SDS011;51654;51.452;6.644;2023-08-12T00:30:04;3.75;;;3.45;;
65063;SDS011;51654;51.452;6.644;2023-08-12T00:32:31;3.15;;;2.95;;
65063;SDS011;51654;51.452;6.644;2023-08-12T00:54:39;8.13;;;4.20;;
65063;SDS011;51654;51.452;6.644;2023-08-12T00:57:07;4.70;;;3.67;;
65063;SDS011;51654;51.452;6.644;2023-08-12T00:59:35;7.40;;;3.72;;
65063;SDS011;51654;51.452;6.644;2023-08-12T01:02:03;5.43;;;3.72;;
65063;SDS011;51654;51.452;6.644;2023-08-12T01:04:31;11.70;;;4.35;;
65063;SDS011;51654;51.452;6.644;2023-08-12T01:06:59;7.80;;;4.50;;
65063;SDS011;51654;51.452;6.644;2023-08-12T01:09:27;6.57;;;4.63;;
65063;SDS011;51654;51.452;6.644;2023-08-12T01:11:59;9.02;;;4.18;;
65063;SDS011;51654;51.452;6.644;2023-08-12T01:14:37;8.82;;;5.20;;
65063;SDS011;51654;51.452;6.644;2023-08-12T01:17:06;12.32;;;5.53;;
65063;SDS011;51654;51.452;6.644;2023-08-12T01:19:38;6.68;;;4.60;;
65063;SDS011;51654;51.452;6.644;2023-08-12T01:22:10;15.73;;;5.50;;
65063;SDS011;51654;51.452;6.644;2023-08-12T01:24:41;6.88;;;4.25;;
65063;SDS011;51654;51.452;6.644;2023-08-12T01:27:10;12.02;;;5.50;;
65063;SDS011;51654;51.452;6.644;2023-08-12T01:29:42;12.60;;;4.82;;
65063;SDS011;51654;51.452;6.644;2023-08-12T01:32:14;9.82;;;4.72;;
65063;SDS011;51654;51.452;6.644;2023-08-12T01:34:54;9.60;;;5.00;;
65063;SDS011;51654;51.452;6.644;2023-08-12T01:37:25;10.70;;;5.40;;
65063;SDS011;51654;51.452;6.644;2023-08-12T01:39:54;7.15;;;5.18;;
65063;SDS011;51654;51.452;6.644;2023-08-12T01:42:21;14.38;;;5.03;;
65063;SDS011;51654;51.452;6.644;2023-08-12T01:44:49;11.20;;;5.90;;
65063;SDS011;51654;51.452;6.644;2023-08-12T01:47:17;15.90;;;6.68;;
65063;SDS011;51654;51.452;6.644;2023-08-12T01:49:44;10.68;;;5.93;;
65063;SDS011;51654;51.452;6.644;2023-08-12T01:52:11;13.38;;;7.13;;
65063;SDS011;51654;51.452;6.644;2023-08-12T01:54:39;12.00;;;6.40;;
65063;SDS011;51654;51.452;6.644;2023-08-12T02:02:04;12.88;;;7.65;;
65063;SDS011;51654;51.452;6.644;2023-08-12T02:04:31;10.88;;;7.88;;
65063;SDS011;51654;51.452;6.644;2023-08-12T02:31:32;10.85;;;7.25;;
65063;SDS011;51654;51.452;6.644;2023-08-12T02:33:59;13.98;;;7.47;;
65063;SDS011;51654;51.452;6.644;2023-08-12T02:36:27;19.27;;;9.45;;
65063;SDS011;51654;51.452;6.644;2023-08-12T02:38:54;22.23;;;8.25;;
65063;SDS011;51654;51.452;6.644;2023-08-12T02:41:21;12.80;;;7.93;;
65063;SDS011;51654;51.452;6.644;2023-08-12T02:43:49;12.23;;;7.17;;
65063;SDS011;51654;51.452;6.644;2023-08-12T02:46:17;13.43;;;8.07;;
65063;SDS011;51654;51.452;6.644;2023-08-12T03:45:23;23.20;;;11.70;;
65063;SDS011;51654;51.452;6.644;2023-08-12T03:47:51;22.58;;;11.48;;
65063;SDS011;51654;51.452;6.644;2023-08-12T06:57:31;21.60;;;9.50;;
65063;SDS011;51654;51.452;6.644;2023-08-12T06:59:59;35.38;;;10.50;;
65063;SDS011;51654;51.452;6.644;2023-08-12T07:02:26;32.55;;;10.88;;
65063;SDS011;51654;51.452;6.644;2023-08-12T07:04:53;16.60;;;8.73;;
65063;SDS011;51654;51.452;6.644;2023-08-12T07:07:21;12.98;;;7.53;;
65063;SDS011;51654;51.452;6.644;2023-08-12T07:09:48;19.92;;;7.93;;
65063;SDS011;51654;51.452;6.644;2023-08-12T10:29:26;0.90;;;0.90;;
65063;SDS011;51654;51.452;6.644;2023-08-12T13:39:17;11.10;;;3.50;;
65063;SDS011;51654;51.452;6.644;2023-08-12T13:41:44;7.55;;;2.85;;
65063;SDS011;51654;51.452;6.644;2023-08-12T13:44:11;7.43;;;3.63;;
65063;SDS011;51654;51.452;6.644;2023-08-12T13:46:39;1.80;;;1.80;;
65063;SDS011;51654;51.452;6.644;2023-08-12T14:40:50;3.65;;;1.13;;
65063;SDS011;51654;51.452;6.644;2023-08-12T14:43:18;16.05;;;1.85;;
65063;SDS011;51654;51.452;6.644;2023-08-12T14:45:45;2.47;;;1.80;;
65063;SDS011;51654;51.452;6.644;2023-08-12T14:48:13;2.25;;;1.10;;
65063;SDS011;51654;51.452;6.644;2023-08-12T14:50:41;2.60;;;1.27;;
